ETD653 OMAA-HECA
Flight info
| Callsign | ETD653 |
|---|---|
| Flight time | 3h 22m |
| Altitude | 40000 |
| Route | BOSEV N563 ALPOB L768 VATIM L550 NOVPA N697 MENLI |
| Aircraft | A35K/H-SDE2E3GHIJ3J4J5LM1ORWXY/LB1D1 |
Departure
| Time | 2026-05-04 16:13 |
|---|---|
| Airport | Zayed International Airport (OMAA) |
Arrival
| Time | 2026-05-04 19:35 |
|---|---|
| Airport | Cairo International Airport (HECA) |
| Time | Latitude | Longitude | Altitude | Speed | Heading |
|---|---|---|---|---|---|
| 2026-05-04 15:22 | 24.45007 | 54.64420 | 87 ft | 0 kts | 321° |
| 2026-05-04 15:57 | 24.45007 | 54.64421 | 81 ft | 1 kts | 321° |
| 2026-05-04 15:57 | 24.44987 | 54.64437 | 84 ft | 4 kts | 321° |
| 2026-05-04 15:57 | 24.44970 | 54.64452 | 86 ft | 4 kts | 319° |
| 2026-05-04 15:58 | 24.44952 | 54.64473 | 86 ft | 4 kts | 304° |
| 2026-05-04 15:58 | 24.44939 | 54.64499 | 86 ft | 4 kts | 289° |
| 2026-05-04 15:58 | 24.44933 | 54.64527 | 85 ft | 4 kts | 277° |
| 2026-05-04 15:58 | 24.44930 | 54.64551 | 85 ft | 4 kts | 277° |
| 2026-05-04 15:59 | 24.44926 | 54.64580 | 84 ft | 4 kts | 281° |
| 2026-05-04 15:59 | 24.44920 | 54.64609 | 83 ft | 4 kts | 285° |
| 2026-05-04 15:59 | 24.44912 | 54.64637 | 83 ft | 4 kts | 289° |
| 2026-05-04 15:59 | 24.44905 | 54.64660 | 83 ft | 3 kts | 290° |
| 2026-05-04 16:00 | 24.44896 | 54.64687 | 81 ft | 4 kts | 290° |
| 2026-05-04 16:00 | 24.44894 | 54.64693 | 81 ft | 0 kts | 290° |
| 2026-05-04 16:02 | 24.44894 | 54.64692 | 81 ft | 0 kts | 290° |
| 2026-05-04 16:02 | 24.44899 | 54.64679 | 86 ft | 5 kts | 289° |
| 2026-05-04 16:02 | 24.44849 | 54.64582 | 86 ft | 13 kts | 178° |
| 2026-05-04 16:03 | 24.44770 | 54.64623 | 87 ft | 13 kts | 147° |
| 2026-05-04 16:03 | 24.44693 | 54.64689 | 86 ft | 14 kts | 127° |
| 2026-05-04 16:03 | 24.44617 | 54.64762 | 86 ft | 15 kts | 174° |
| 2026-05-04 16:03 | 24.44521 | 54.64707 | 87 ft | 17 kts | 221° |
| 2026-05-04 16:04 | 24.44422 | 54.64622 | 86 ft | 19 kts | 218° |
| 2026-05-04 16:04 | 24.44260 | 54.64498 | 85 ft | 1 kts | 186° |
| 2026-05-04 16:04 | 24.44238 | 54.64508 | 85 ft | 8 kts | 144° |
| 2026-05-04 16:05 | 24.44184 | 54.64575 | 86 ft | 14 kts | 128° |
| 2026-05-04 16:05 | 24.44119 | 54.64664 | 87 ft | 16 kts | 128° |
| 2026-05-04 16:05 | 24.43959 | 54.64746 | 83 ft | 13 kts | 195° |
| 2026-05-04 16:06 | 24.43877 | 54.64782 | 86 ft | 14 kts | 136° |
| 2026-05-04 16:06 | 24.43676 | 54.65064 | 87 ft | 21 kts | 128° |
| 2026-05-04 16:07 | 24.43547 | 54.65243 | 87 ft | 24 kts | 128° |
| 2026-05-04 16:07 | 24.43199 | 54.65734 | 85 ft | 30 kts | 128° |
| 2026-05-04 16:08 | 24.43066 | 54.65920 | 87 ft | 28 kts | 128° |
| 2026-05-04 16:08 | 24.42707 | 54.66428 | 87 ft | 31 kts | 128° |
| 2026-05-04 16:09 | 24.42476 | 54.66750 | 87 ft | 11 kts | 139° |
| 2026-05-04 16:09 | 24.42322 | 54.66679 | 86 ft | 15 kts | 217° |
| 2026-05-04 16:10 | 24.42261 | 54.66596 | 86 ft | 2 kts | 289° |
| 2026-05-04 16:11 | 24.42271 | 54.66576 | 86 ft | 0 kts | 307° |
| 2026-05-04 16:12 | 24.43103 | 54.65400 | 88 ft | 161 kts | 310° |
| 2026-05-04 16:13 | 24.44653 | 54.63271 | 1396 ft | 178 kts | 308° |
| 2026-05-04 16:13 | 24.46341 | 54.60867 | 2583 ft | 217 kts | 308° |
| 2026-05-04 16:14 | 24.48235 | 54.58182 | 4141 ft | 227 kts | 309° |
| 2026-05-04 16:14 | 24.50344 | 54.55213 | 4928 ft | 276 kts | 310° |
| 2026-05-04 16:15 | 24.54132 | 54.49862 | 5004 ft | 278 kts | 309° |
| 2026-05-04 16:16 | 24.56400 | 54.46644 | 5000 ft | 262 kts | 310° |
| 2026-05-04 16:16 | 24.59754 | 54.41896 | 4997 ft | 262 kts | 310° |
| 2026-05-04 16:17 | 24.61998 | 54.38724 | 5004 ft | 262 kts | 310° |
| 2026-05-04 16:18 | 24.65354 | 54.33996 | 5080 ft | 262 kts | 310° |
| 2026-05-04 16:18 | 24.66488 | 54.32396 | 5580 ft | 267 kts | 310° |
| 2026-05-04 16:19 | 24.69856 | 54.27636 | 8158 ft | 264 kts | 309° |
| 2026-05-04 16:19 | 24.72147 | 54.24400 | 9781 ft | 271 kts | 309° |
| 2026-05-04 16:20 | 24.75887 | 54.19113 | 11020 ft | 323 kts | 309° |
| 2026-05-04 16:20 | 24.78805 | 54.14981 | 11624 ft | 356 kts | 309° |
| 2026-05-04 16:21 | 24.83487 | 54.08301 | 13316 ft | 375 kts | 306° |
| 2026-05-04 16:22 | 24.86376 | 54.03474 | 14436 ft | 383 kts | 302° |
| 2026-05-04 16:22 | 24.90579 | 53.95840 | 16275 ft | 392 kts | 301° |
| 2026-05-04 16:23 | 24.94890 | 53.88065 | 18081 ft | 403 kts | 301° |
| 2026-05-04 16:24 | 25.00354 | 53.78294 | 20121 ft | 414 kts | 301° |
| 2026-05-04 16:25 | 25.04039 | 53.73330 | 21281 ft | 422 kts | 312° |
| 2026-05-04 16:26 | 25.12534 | 53.64140 | 23533 ft | 436 kts | 314° |
| 2026-05-04 16:26 | 25.19138 | 53.57105 | 25097 ft | 443 kts | 313° |
| 2026-05-04 16:27 | 25.23586 | 53.52323 | 26270 ft | 448 kts | 313° |
| 2026-05-04 16:28 | 25.30337 | 53.45053 | 27997 ft | 455 kts | 312° |
| 2026-05-04 16:28 | 25.37181 | 53.37667 | 29593 ft | 464 kts | 312° |
| 2026-05-04 16:29 | 25.46555 | 53.27545 | 31270 ft | 475 kts | 311° |
| 2026-05-04 16:30 | 25.53644 | 53.19883 | 32665 ft | 475 kts | 311° |
| 2026-05-04 16:31 | 25.58343 | 53.14780 | 33768 ft | 471 kts | 311° |
| 2026-05-04 16:31 | 25.65327 | 53.07180 | 35075 ft | 467 kts | 310° |
| 2026-05-04 16:32 | 25.71567 | 52.99075 | 36212 ft | 456 kts | 296° |
| 2026-05-04 16:33 | 25.74629 | 52.92962 | 36911 ft | 453 kts | 294° |
| 2026-05-04 16:33 | 25.77517 | 52.86795 | 37658 ft | 451 kts | 293° |
| 2026-05-04 16:34 | 25.80400 | 52.80614 | 38347 ft | 449 kts | 293° |
| 2026-05-04 16:34 | 25.81841 | 52.77542 | 38630 ft | 449 kts | 293° |
| 2026-05-04 16:35 | 25.86181 | 52.68311 | 39317 ft | 449 kts | 293° |
| 2026-05-04 16:35 | 25.90490 | 52.59139 | 39771 ft | 448 kts | 293° |
| 2026-05-04 16:36 | 25.94614 | 52.49825 | 39769 ft | 447 kts | 291° |
| 2026-05-04 16:37 | 25.98698 | 52.40504 | 39762 ft | 446 kts | 291° |
| 2026-05-04 16:38 | 26.04188 | 52.28133 | 39762 ft | 447 kts | 292° |
| 2026-05-04 16:39 | 26.11101 | 52.12620 | 39769 ft | 446 kts | 291° |
| 2026-05-04 16:40 | 26.16580 | 52.00274 | 39772 ft | 446 kts | 291° |
| 2026-05-04 16:41 | 26.23496 | 51.84781 | 39793 ft | 446 kts | 291° |
| 2026-05-04 16:43 | 26.30330 | 51.69344 | 39775 ft | 445 kts | 291° |
| 2026-05-04 16:43 | 26.34471 | 51.60066 | 39778 ft | 445 kts | 291° |
| 2026-05-04 16:45 | 26.41525 | 51.41015 | 39780 ft | 441 kts | 285° |
| 2026-05-04 16:46 | 26.46648 | 51.24921 | 39783 ft | 440 kts | 285° |
| 2026-05-04 16:47 | 26.50744 | 51.12067 | 39784 ft | 439 kts | 284° |
| 2026-05-04 16:48 | 26.54821 | 50.99224 | 39783 ft | 438 kts | 284° |
| 2026-05-04 16:49 | 26.58861 | 50.86417 | 39784 ft | 438 kts | 284° |
| 2026-05-04 16:50 | 26.62843 | 50.73520 | 39786 ft | 437 kts | 284° |
| 2026-05-04 16:51 | 26.65798 | 50.63868 | 39783 ft | 436 kts | 283° |
| 2026-05-04 16:52 | 26.69571 | 50.51026 | 39791 ft | 436 kts | 283° |
| 2026-05-04 16:53 | 26.72261 | 50.41318 | 39796 ft | 434 kts | 281° |
| 2026-05-04 16:54 | 26.75498 | 50.28366 | 39793 ft | 431 kts | 281° |
| 2026-05-04 16:55 | 26.81151 | 50.09203 | 39790 ft | 432 kts | 283° |
| 2026-05-04 16:56 | 26.85891 | 49.93307 | 39789 ft | 430 kts | 282° |
| 2026-05-04 16:57 | 26.88708 | 49.83769 | 39780 ft | 429 kts | 282° |
| 2026-05-04 16:58 | 26.92443 | 49.71097 | 39777 ft | 430 kts | 282° |
| 2026-05-04 17:00 | 26.98044 | 49.52026 | 39761 ft | 429 kts | 282° |
| 2026-05-04 17:01 | 27.01355 | 49.41279 | 39780 ft | 436 kts | 288° |
| 2026-05-04 17:02 | 27.07178 | 49.29267 | 39770 ft | 441 kts | 292° |
| 2026-05-04 17:03 | 27.11741 | 49.20261 | 39788 ft | 442 kts | 292° |
| 2026-05-04 17:03 | 27.16259 | 49.11271 | 39790 ft | 442 kts | 292° |
| 2026-05-04 17:04 | 27.22272 | 48.99254 | 39791 ft | 442 kts | 292° |
| 2026-05-04 17:05 | 27.28276 | 48.87214 | 39795 ft | 441 kts | 292° |
| 2026-05-04 17:06 | 27.32684 | 48.78344 | 39819 ft | 441 kts | 292° |
| 2026-05-04 17:07 | 27.36178 | 48.71307 | 39804 ft | 440 kts | 291° |
| 2026-05-04 17:07 | 27.40146 | 48.63301 | 39802 ft | 439 kts | 291° |
| 2026-05-04 17:08 | 27.44592 | 48.54310 | 39804 ft | 440 kts | 291° |
| 2026-05-04 17:09 | 27.47569 | 48.48280 | 39804 ft | 439 kts | 291° |
| 2026-05-04 17:09 | 27.50533 | 48.42270 | 39795 ft | 439 kts | 291° |
| 2026-05-04 17:10 | 27.57474 | 48.28154 | 39807 ft | 442 kts | 291° |
| 2026-05-04 17:11 | 27.60940 | 48.21115 | 39797 ft | 441 kts | 291° |
| 2026-05-04 17:12 | 27.64914 | 48.13012 | 39812 ft | 444 kts | 291° |
| 2026-05-04 17:13 | 27.72379 | 47.97774 | 39812 ft | 445 kts | 291° |
| 2026-05-04 17:14 | 27.78343 | 47.85497 | 39812 ft | 445 kts | 291° |
| 2026-05-04 17:15 | 27.82814 | 47.76283 | 39812 ft | 447 kts | 291° |
| 2026-05-04 17:16 | 27.87351 | 47.63470 | 39815 ft | 439 kts | 282° |
| 2026-05-04 17:17 | 27.91364 | 47.50427 | 39814 ft | 438 kts | 282° |
| 2026-05-04 17:18 | 27.95367 | 47.37453 | 39830 ft | 437 kts | 282° |
| 2026-05-04 17:19 | 27.99342 | 47.24541 | 39814 ft | 433 kts | 282° |
| 2026-05-04 17:20 | 28.03282 | 47.11684 | 39814 ft | 430 kts | 281° |
| 2026-05-04 17:20 | 28.06199 | 47.02140 | 39809 ft | 428 kts | 281° |
| 2026-05-04 17:21 | 28.10085 | 46.89372 | 39806 ft | 428 kts | 281° |
| 2026-05-04 17:22 | 28.12085 | 46.83042 | 39808 ft | 430 kts | 283° |
| 2026-05-04 17:23 | 28.16375 | 46.70379 | 39807 ft | 429 kts | 283° |
| 2026-05-04 17:24 | 28.19531 | 46.60919 | 39809 ft | 428 kts | 282° |
| 2026-05-04 17:25 | 28.23722 | 46.48253 | 39809 ft | 429 kts | 282° |
| 2026-05-04 17:26 | 28.27906 | 46.35577 | 39806 ft | 428 kts | 282° |
| 2026-05-04 17:27 | 28.33101 | 46.19774 | 39819 ft | 428 kts | 282° |
| 2026-05-04 17:28 | 28.37329 | 46.07149 | 39802 ft | 429 kts | 284° |
| 2026-05-04 17:29 | 28.44405 | 45.88437 | 39821 ft | 430 kts | 284° |
| 2026-05-04 17:31 | 28.50203 | 45.72766 | 39821 ft | 430 kts | 284° |
| 2026-05-04 17:32 | 28.55985 | 45.57076 | 39836 ft | 431 kts | 284° |
| 2026-05-04 17:33 | 28.60594 | 45.44523 | 39830 ft | 431 kts | 284° |
| 2026-05-04 17:34 | 28.65205 | 45.31921 | 39831 ft | 430 kts | 284° |
| 2026-05-04 17:35 | 28.70933 | 45.16208 | 39833 ft | 431 kts | 284° |
| 2026-05-04 17:36 | 28.73228 | 45.09892 | 39846 ft | 431 kts | 284° |
| 2026-05-04 17:36 | 28.75519 | 45.03577 | 39837 ft | 431 kts | 284° |
| 2026-05-04 17:37 | 28.77809 | 44.97256 | 39839 ft | 430 kts | 284° |
| 2026-05-04 17:37 | 28.80072 | 44.90997 | 39835 ft | 430 kts | 284° |
| 2026-05-04 17:38 | 28.82350 | 44.84683 | 39832 ft | 430 kts | 284° |
| 2026-05-04 17:38 | 28.84627 | 44.78352 | 39831 ft | 429 kts | 284° |
| 2026-05-04 17:39 | 28.86496 | 44.68652 | 39834 ft | 415 kts | 270° |
| 2026-05-04 17:39 | 28.87039 | 44.62330 | 39835 ft | 415 kts | 269° |
| 2026-05-04 17:40 | 28.87534 | 44.55780 | 39834 ft | 413 kts | 269° |
| 2026-05-04 17:40 | 28.88034 | 44.49243 | 39813 ft | 413 kts | 269° |
| 2026-05-04 17:41 | 28.88545 | 44.42690 | 39834 ft | 414 kts | 269° |
| 2026-05-04 17:41 | 28.89057 | 44.36174 | 39835 ft | 413 kts | 269° |
| 2026-05-04 17:42 | 28.89569 | 44.29641 | 39837 ft | 413 kts | 269° |
| 2026-05-04 17:42 | 28.90074 | 44.23117 | 39835 ft | 413 kts | 269° |
| 2026-05-04 17:43 | 28.90577 | 44.16591 | 39834 ft | 412 kts | 269° |
| 2026-05-04 17:43 | 28.90658 | 44.15537 | 39834 ft | 412 kts | 269° |
| 2026-05-04 17:44 | 28.91195 | 44.08508 | 39837 ft | 412 kts | 269° |
| 2026-05-04 17:44 | 28.91657 | 44.02420 | 39859 ft | 412 kts | 269° |
| 2026-05-04 17:45 | 28.92149 | 43.95912 | 39842 ft | 410 kts | 269° |
| 2026-05-04 17:45 | 28.92632 | 43.89464 | 39836 ft | 410 kts | 269° |
| 2026-05-04 17:46 | 28.93115 | 43.82974 | 39851 ft | 411 kts | 269° |
| 2026-05-04 17:46 | 28.93596 | 43.76462 | 39837 ft | 411 kts | 269° |
| 2026-05-04 17:47 | 28.94075 | 43.69960 | 39839 ft | 410 kts | 269° |
| 2026-05-04 17:47 | 28.94547 | 43.63500 | 39828 ft | 410 kts | 269° |
| 2026-05-04 17:48 | 28.95017 | 43.57015 | 39835 ft | 409 kts | 269° |
| 2026-05-04 17:48 | 28.95485 | 43.50542 | 39833 ft | 408 kts | 269° |
| 2026-05-04 17:49 | 28.95871 | 43.45160 | 39838 ft | 408 kts | 269° |
| 2026-05-04 17:50 | 28.96303 | 43.39073 | 39839 ft | 408 kts | 269° |
| 2026-05-04 17:51 | 28.96756 | 43.32658 | 39837 ft | 408 kts | 269° |
| 2026-05-04 17:51 | 28.97209 | 43.26200 | 39837 ft | 408 kts | 269° |
| 2026-05-04 17:52 | 28.97658 | 43.19744 | 39842 ft | 408 kts | 269° |
| 2026-05-04 17:52 | 28.98106 | 43.13269 | 39839 ft | 409 kts | 269° |
| 2026-05-04 17:53 | 28.98552 | 43.06790 | 39836 ft | 409 kts | 269° |
| 2026-05-04 17:53 | 28.98993 | 43.00349 | 39846 ft | 409 kts | 269° |
| 2026-05-04 17:54 | 28.99433 | 42.93867 | 39842 ft | 408 kts | 269° |
| 2026-05-04 17:54 | 28.99868 | 42.87411 | 39843 ft | 407 kts | 269° |
| 2026-05-04 17:55 | 29.00295 | 42.81000 | 39840 ft | 407 kts | 269° |
| 2026-05-04 17:55 | 29.00722 | 42.74551 | 39840 ft | 407 kts | 269° |
| 2026-05-04 17:56 | 29.01148 | 42.68094 | 39845 ft | 407 kts | 268° |
| 2026-05-04 17:56 | 29.01571 | 42.61626 | 39845 ft | 408 kts | 268° |
| 2026-05-04 17:57 | 29.01991 | 42.55169 | 39837 ft | 406 kts | 268° |
| 2026-05-04 17:57 | 29.02403 | 42.48764 | 39842 ft | 407 kts | 268° |
| 2026-05-04 17:58 | 29.02816 | 42.42299 | 39847 ft | 407 kts | 268° |
| 2026-05-04 17:58 | 29.03225 | 42.35843 | 39847 ft | 406 kts | 268° |
| 2026-05-04 17:59 | 29.03563 | 42.30490 | 39848 ft | 406 kts | 268° |
| 2026-05-04 18:00 | 29.04166 | 42.20830 | 39855 ft | 405 kts | 268° |
| 2026-05-04 18:00 | 29.04565 | 42.14401 | 39859 ft | 405 kts | 268° |
| 2026-05-04 18:01 | 29.04956 | 42.08025 | 39859 ft | 404 kts | 268° |
| 2026-05-04 18:01 | 29.05346 | 42.01602 | 39857 ft | 404 kts | 268° |
| 2026-05-04 18:02 | 29.05925 | 41.92024 | 39857 ft | 403 kts | 268° |
| 2026-05-04 18:02 | 29.06305 | 41.85633 | 39860 ft | 404 kts | 268° |
| 2026-05-04 18:03 | 29.06679 | 41.79215 | 39862 ft | 404 kts | 268° |
| 2026-05-04 18:03 | 29.07052 | 41.72804 | 39865 ft | 404 kts | 268° |
| 2026-05-04 18:04 | 29.07422 | 41.66401 | 39871 ft | 403 kts | 268° |
| 2026-05-04 18:05 | 29.07972 | 41.56798 | 39874 ft | 404 kts | 268° |
| 2026-05-04 18:05 | 29.08335 | 41.50401 | 39877 ft | 402 kts | 268° |
| 2026-05-04 18:06 | 29.08871 | 41.40870 | 39890 ft | 402 kts | 268° |
| 2026-05-04 18:06 | 29.09229 | 41.34476 | 39914 ft | 402 kts | 268° |
| 2026-05-04 18:07 | 29.09584 | 41.28100 | 39887 ft | 401 kts | 268° |
| 2026-05-04 18:07 | 29.09933 | 41.21740 | 39852 ft | 400 kts | 268° |
| 2026-05-04 18:08 | 29.10275 | 41.15396 | 39902 ft | 403 kts | 268° |
| 2026-05-04 18:08 | 29.10621 | 41.08991 | 39898 ft | 403 kts | 268° |
| 2026-05-04 18:09 | 29.11306 | 40.96194 | 39907 ft | 403 kts | 268° |
| 2026-05-04 18:10 | 29.11644 | 40.89791 | 39930 ft | 403 kts | 267° |
| 2026-05-04 18:10 | 29.11976 | 40.83437 | 39914 ft | 402 kts | 267° |
| 2026-05-04 18:11 | 29.12306 | 40.77053 | 39915 ft | 402 kts | 267° |
| 2026-05-04 18:11 | 29.12631 | 40.70661 | 39919 ft | 402 kts | 267° |
| 2026-05-04 18:12 | 29.12954 | 40.64273 | 39929 ft | 402 kts | 267° |
| 2026-05-04 18:12 | 29.13218 | 40.57923 | 39927 ft | 400 kts | 264° |
| 2026-05-04 18:13 | 29.13095 | 40.51567 | 39909 ft | 399 kts | 263° |
| 2026-05-04 18:14 | 29.12780 | 40.42034 | 39937 ft | 400 kts | 263° |
| 2026-05-04 18:14 | 29.12560 | 40.35709 | 39944 ft | 400 kts | 263° |
| 2026-05-04 18:15 | 29.12124 | 40.22985 | 39957 ft | 400 kts | 263° |
| 2026-05-04 18:16 | 29.11905 | 40.16637 | 39953 ft | 399 kts | 263° |
| 2026-05-04 18:16 | 29.11682 | 40.10291 | 39957 ft | 399 kts | 263° |
| 2026-05-04 18:17 | 29.11343 | 40.00803 | 39975 ft | 399 kts | 263° |
| 2026-05-04 18:18 | 29.10996 | 39.91275 | 39965 ft | 399 kts | 263° |
| 2026-05-04 18:18 | 29.10893 | 39.84907 | 39966 ft | 401 kts | 265° |
| 2026-05-04 18:19 | 29.11009 | 39.75365 | 39971 ft | 402 kts | 265° |
| 2026-05-04 18:19 | 29.11060 | 39.68968 | 39973 ft | 402 kts | 265° |
| 2026-05-04 18:20 | 29.11083 | 39.62610 | 39979 ft | 401 kts | 265° |
| 2026-05-04 18:20 | 29.11096 | 39.56224 | 39986 ft | 401 kts | 265° |
| 2026-05-04 18:21 | 29.11107 | 39.49833 | 39979 ft | 402 kts | 265° |
| 2026-05-04 18:21 | 29.11116 | 39.43444 | 39978 ft | 402 kts | 265° |
| 2026-05-04 18:22 | 29.11123 | 39.37051 | 39986 ft | 402 kts | 265° |
| 2026-05-04 18:22 | 29.11126 | 39.30662 | 39973 ft | 402 kts | 265° |
| 2026-05-04 18:23 | 29.11126 | 39.24290 | 39982 ft | 402 kts | 265° |
| 2026-05-04 18:23 | 29.11124 | 39.17890 | 39983 ft | 402 kts | 265° |
| 2026-05-04 18:24 | 29.11119 | 39.11488 | 40015 ft | 402 kts | 265° |
| 2026-05-04 18:24 | 29.11110 | 39.05141 | 39992 ft | 401 kts | 265° |
| 2026-05-04 18:25 | 29.11099 | 38.98764 | 39983 ft | 401 kts | 265° |
| 2026-05-04 18:25 | 29.11084 | 38.92393 | 39987 ft | 401 kts | 265° |
| 2026-05-04 18:26 | 29.11059 | 38.86012 | 39994 ft | 400 kts | 264° |
| 2026-05-04 18:26 | 29.11032 | 38.79644 | 39984 ft | 400 kts | 264° |
| 2026-05-04 18:27 | 29.11002 | 38.73281 | 39985 ft | 400 kts | 264° |
| 2026-05-04 18:27 | 29.10970 | 38.66958 | 39964 ft | 400 kts | 264° |
| 2026-05-04 18:28 | 29.10934 | 38.60604 | 39987 ft | 399 kts | 264° |
| 2026-05-04 18:28 | 29.10895 | 38.54261 | 39979 ft | 398 kts | 264° |
| 2026-05-04 18:29 | 29.10854 | 38.47959 | 39982 ft | 398 kts | 264° |
| 2026-05-04 18:29 | 29.10808 | 38.41614 | 39982 ft | 399 kts | 264° |
| 2026-05-04 18:30 | 29.10740 | 38.32086 | 39987 ft | 399 kts | 264° |
| 2026-05-04 18:31 | 29.10686 | 38.25785 | 39982 ft | 398 kts | 264° |
| 2026-05-04 18:31 | 29.10628 | 38.19441 | 39981 ft | 398 kts | 264° |
| 2026-05-04 18:32 | 29.10569 | 38.13097 | 39979 ft | 398 kts | 264° |
| 2026-05-04 18:32 | 29.10508 | 38.06807 | 39984 ft | 398 kts | 264° |
| 2026-05-04 18:33 | 29.10443 | 38.00483 | 39961 ft | 398 kts | 264° |
| 2026-05-04 18:33 | 29.10376 | 37.94159 | 40006 ft | 397 kts | 264° |
| 2026-05-04 18:34 | 29.10306 | 37.87841 | 39978 ft | 396 kts | 264° |
| 2026-05-04 18:34 | 29.10232 | 37.81535 | 39982 ft | 396 kts | 264° |
| 2026-05-04 18:35 | 29.10157 | 37.75262 | 39986 ft | 396 kts | 264° |
| 2026-05-04 18:35 | 29.10077 | 37.68955 | 39998 ft | 397 kts | 264° |
| 2026-05-04 18:36 | 29.09995 | 37.62635 | 39989 ft | 398 kts | 264° |
| 2026-05-04 18:36 | 29.09910 | 37.56302 | 39981 ft | 398 kts | 264° |
| 2026-05-04 18:37 | 29.09823 | 37.49998 | 39997 ft | 398 kts | 264° |
| 2026-05-04 18:37 | 29.09770 | 37.43649 | 39991 ft | 399 kts | 265° |
| 2026-05-04 18:38 | 29.09730 | 37.37279 | 39992 ft | 400 kts | 265° |
| 2026-05-04 18:38 | 29.09686 | 37.30957 | 39995 ft | 400 kts | 265° |
| 2026-05-04 18:39 | 29.09634 | 37.24598 | 40001 ft | 400 kts | 265° |
| 2026-05-04 18:39 | 29.09576 | 37.18217 | 40006 ft | 401 kts | 265° |
| 2026-05-04 18:40 | 29.09516 | 37.11862 | 39994 ft | 401 kts | 265° |
| 2026-05-04 18:40 | 29.09453 | 37.05478 | 40009 ft | 401 kts | 265° |
| 2026-05-04 18:41 | 29.09387 | 36.99096 | 40027 ft | 401 kts | 265° |
| 2026-05-04 18:41 | 29.09318 | 36.92713 | 40005 ft | 402 kts | 265° |
| 2026-05-04 18:42 | 29.09246 | 36.86321 | 40001 ft | 402 kts | 265° |
| 2026-05-04 18:42 | 29.09171 | 36.79962 | 40002 ft | 402 kts | 265° |
| 2026-05-04 18:43 | 29.09094 | 36.73573 | 40028 ft | 402 kts | 265° |
| 2026-05-04 18:43 | 29.09013 | 36.67165 | 40005 ft | 401 kts | 265° |
| 2026-05-04 18:44 | 29.08929 | 36.60821 | 39995 ft | 401 kts | 265° |
| 2026-05-04 18:44 | 29.08842 | 36.54445 | 40008 ft | 401 kts | 265° |
| 2026-05-04 18:45 | 29.08752 | 36.48068 | 40019 ft | 401 kts | 265° |
| 2026-05-04 18:45 | 29.08619 | 36.41791 | 40012 ft | 400 kts | 264° |
| 2026-05-04 18:46 | 29.08464 | 36.36530 | 40012 ft | 400 kts | 264° |
| 2026-05-04 18:46 | 29.08306 | 36.31245 | 40013 ft | 400 kts | 264° |
| 2026-05-04 18:47 | 29.08093 | 36.23853 | 40038 ft | 400 kts | 264° |
| 2026-05-04 18:47 | 29.07944 | 36.18574 | 40015 ft | 399 kts | 264° |
| 2026-05-04 18:48 | 29.07763 | 36.12227 | 40015 ft | 399 kts | 264° |
| 2026-05-04 18:48 | 29.07578 | 36.05884 | 40012 ft | 399 kts | 264° |
| 2026-05-04 18:49 | 29.07390 | 35.99541 | 40019 ft | 399 kts | 264° |
| 2026-05-04 18:49 | 29.07200 | 35.93242 | 39981 ft | 399 kts | 264° |
| 2026-05-04 18:50 | 29.07006 | 35.86899 | 40018 ft | 399 kts | 264° |
| 2026-05-04 18:50 | 29.06810 | 35.80553 | 40029 ft | 399 kts | 264° |
| 2026-05-04 18:51 | 29.06611 | 35.74211 | 40051 ft | 399 kts | 264° |
| 2026-05-04 18:51 | 29.06409 | 35.67902 | 40033 ft | 399 kts | 264° |
| 2026-05-04 18:52 | 29.06203 | 35.61560 | 40041 ft | 399 kts | 264° |
| 2026-05-04 18:52 | 29.05995 | 35.55220 | 40043 ft | 399 kts | 264° |
| 2026-05-04 18:53 | 29.05784 | 35.48877 | 40053 ft | 400 kts | 264° |
| 2026-05-04 18:53 | 29.05567 | 35.42505 | 40048 ft | 401 kts | 264° |
| 2026-05-04 18:54 | 29.05349 | 35.36170 | 40046 ft | 401 kts | 264° |
| 2026-05-04 18:54 | 29.05128 | 35.29788 | 40049 ft | 401 kts | 264° |
| 2026-05-04 18:55 | 29.04911 | 35.23411 | 40063 ft | 401 kts | 264° |
| 2026-05-04 18:55 | 29.04563 | 35.13878 | 40040 ft | 400 kts | 264° |
| 2026-05-04 18:56 | 29.04328 | 35.07522 | 40039 ft | 400 kts | 264° |
| 2026-05-04 18:56 | 29.04094 | 35.01188 | 40032 ft | 400 kts | 264° |
| 2026-05-04 18:57 | 29.03855 | 34.94816 | 40032 ft | 400 kts | 264° |
| 2026-05-04 18:57 | 29.03615 | 34.88455 | 40021 ft | 400 kts | 264° |
| 2026-05-04 18:58 | 29.03386 | 34.82136 | 40018 ft | 401 kts | 265° |
| 2026-05-04 18:58 | 29.03283 | 34.75752 | 40017 ft | 401 kts | 265° |
| 2026-05-04 18:59 | 29.03339 | 34.69356 | 40022 ft | 405 kts | 270° |
| 2026-05-04 18:59 | 29.04456 | 34.62987 | 40027 ft | 413 kts | 280° |
| 2026-05-04 19:00 | 29.06222 | 34.56713 | 40034 ft | 415 kts | 282° |
| 2026-05-04 19:00 | 29.08081 | 34.50487 | 40049 ft | 416 kts | 282° |
| 2026-05-04 19:01 | 29.09946 | 34.44220 | 40050 ft | 416 kts | 282° |
| 2026-05-04 19:01 | 29.11792 | 34.37937 | 40046 ft | 415 kts | 282° |
| 2026-05-04 19:02 | 29.13611 | 34.31706 | 40063 ft | 416 kts | 282° |
| 2026-05-04 19:02 | 29.15433 | 34.25437 | 40060 ft | 415 kts | 282° |
| 2026-05-04 19:03 | 29.17257 | 34.19153 | 40075 ft | 416 kts | 282° |
| 2026-05-04 19:03 | 29.19081 | 34.12865 | 40073 ft | 416 kts | 282° |
| 2026-05-04 19:04 | 29.20888 | 34.06625 | 40074 ft | 415 kts | 282° |
| 2026-05-04 19:04 | 29.22707 | 34.00332 | 40077 ft | 416 kts | 282° |
| 2026-05-04 19:05 | 29.24524 | 33.94037 | 40086 ft | 416 kts | 282° |
| 2026-05-04 19:05 | 29.26341 | 33.87736 | 40079 ft | 416 kts | 282° |
| 2026-05-04 19:06 | 29.28139 | 33.81477 | 40076 ft | 416 kts | 282° |
| 2026-05-04 19:06 | 29.29944 | 33.75181 | 40080 ft | 416 kts | 282° |
| 2026-05-04 19:07 | 29.31749 | 33.68877 | 40086 ft | 416 kts | 282° |
| 2026-05-04 19:07 | 29.33541 | 33.62603 | 40073 ft | 417 kts | 282° |
| 2026-05-04 19:08 | 29.35346 | 33.56272 | 40071 ft | 417 kts | 282° |
| 2026-05-04 19:08 | 29.37149 | 33.49940 | 40074 ft | 417 kts | 282° |
| 2026-05-04 19:09 | 29.38948 | 33.43607 | 40087 ft | 417 kts | 282° |
| 2026-05-04 19:09 | 29.40734 | 33.37308 | 40071 ft | 417 kts | 282° |
| 2026-05-04 19:10 | 29.42528 | 33.30967 | 40088 ft | 417 kts | 282° |
| 2026-05-04 19:10 | 29.44318 | 33.24625 | 40087 ft | 417 kts | 282° |
| 2026-05-04 19:11 | 29.46105 | 33.18286 | 40090 ft | 417 kts | 282° |
| 2026-05-04 19:11 | 29.47878 | 33.11980 | 40080 ft | 418 kts | 282° |
| 2026-05-04 19:12 | 29.50553 | 33.02438 | 40079 ft | 418 kts | 282° |
| 2026-05-04 19:13 | 29.52336 | 32.96069 | 40082 ft | 418 kts | 282° |
| 2026-05-04 19:13 | 29.54102 | 32.89743 | 40071 ft | 418 kts | 282° |
| 2026-05-04 19:14 | 29.55876 | 32.83372 | 40077 ft | 419 kts | 282° |
| 2026-05-04 19:14 | 29.57650 | 32.76990 | 40073 ft | 419 kts | 282° |
| 2026-05-04 19:15 | 29.59422 | 32.70607 | 40076 ft | 419 kts | 282° |
| 2026-05-04 19:15 | 29.61103 | 32.64245 | 40078 ft | 417 kts | 280° |
| 2026-05-04 19:16 | 29.62533 | 32.57784 | 40085 ft | 416 kts | 279° |
| 2026-05-04 19:16 | 29.63931 | 32.51328 | 40081 ft | 415 kts | 279° |
| 2026-05-04 19:17 | 29.65363 | 32.44882 | 40079 ft | 416 kts | 280° |
| 2026-05-04 19:17 | 29.66806 | 32.38476 | 40087 ft | 416 kts | 280° |
| 2026-05-04 19:18 | 29.68259 | 32.32034 | 40090 ft | 415 kts | 280° |
| 2026-05-04 19:18 | 29.69707 | 32.25596 | 40096 ft | 415 kts | 280° |
| 2026-05-04 19:19 | 29.71139 | 32.19207 | 40086 ft | 415 kts | 280° |
| 2026-05-04 19:19 | 29.72561 | 32.12868 | 39338 ft | 398 kts | 279° |
| 2026-05-04 19:19 | 29.73246 | 32.09782 | 38011 ft | 399 kts | 280° |
| 2026-05-04 19:20 | 29.73935 | 32.06666 | 36462 ft | 403 kts | 281° |
| 2026-05-04 19:20 | 29.74630 | 32.03524 | 34918 ft | 407 kts | 281° |
| 2026-05-04 19:20 | 29.75332 | 32.00356 | 33282 ft | 410 kts | 281° |
| 2026-05-04 19:20 | 29.76040 | 31.97173 | 31517 ft | 412 kts | 282° |
| 2026-05-04 19:21 | 29.76750 | 31.93977 | 29697 ft | 413 kts | 282° |
| 2026-05-04 19:21 | 29.77463 | 31.90763 | 27688 ft | 415 kts | 282° |
| 2026-05-04 19:21 | 29.78223 | 31.87555 | 25804 ft | 417 kts | 285° |
| 2026-05-04 19:21 | 29.79155 | 31.84449 | 24211 ft | 414 kts | 287° |
| 2026-05-04 19:22 | 29.80129 | 31.81350 | 22529 ft | 409 kts | 287° |
| 2026-05-04 19:22 | 29.81097 | 31.78308 | 20951 ft | 400 kts | 288° |
| 2026-05-04 19:22 | 29.82048 | 31.75335 | 19482 ft | 391 kts | 288° |
| 2026-05-04 19:22 | 29.82725 | 31.73220 | 18554 ft | 385 kts | 288° |
| 2026-05-04 19:23 | 29.83625 | 31.70414 | 17836 ft | 360 kts | 288° |
| 2026-05-04 19:23 | 29.84462 | 31.67810 | 17316 ft | 333 kts | 288° |
| 2026-05-04 19:23 | 29.85238 | 31.65391 | 16872 ft | 309 kts | 288° |
| 2026-05-04 19:23 | 29.85956 | 31.63149 | 16460 ft | 289 kts | 287° |
| 2026-05-04 19:24 | 29.86635 | 31.61020 | 15780 ft | 279 kts | 288° |
| 2026-05-04 19:24 | 29.87292 | 31.58956 | 14982 ft | 276 kts | 288° |
| 2026-05-04 19:24 | 29.87953 | 31.56875 | 14159 ft | 275 kts | 288° |
| 2026-05-04 19:24 | 29.88607 | 31.54823 | 13299 ft | 273 kts | 288° |
| 2026-05-04 19:25 | 29.89106 | 31.53255 | 12628 ft | 271 kts | 288° |
| 2026-05-04 19:25 | 29.89757 | 31.51212 | 11750 ft | 270 kts | 289° |
| 2026-05-04 19:25 | 29.90405 | 31.49178 | 10894 ft | 270 kts | 289° |
| 2026-05-04 19:25 | 29.91049 | 31.47152 | 10092 ft | 268 kts | 289° |
| 2026-05-04 19:26 | 29.91689 | 31.45139 | 9249 ft | 269 kts | 289° |
| 2026-05-04 19:26 | 29.92336 | 31.43108 | 8754 ft | 269 kts | 289° |
| 2026-05-04 19:26 | 29.92792 | 31.41049 | 8347 ft | 264 kts | 273° |
| 2026-05-04 19:26 | 29.92454 | 31.39011 | 7957 ft | 264 kts | 248° |
| 2026-05-04 19:27 | 29.91384 | 31.37291 | 7590 ft | 265 kts | 231° |
| 2026-05-04 19:27 | 29.90112 | 31.35785 | 7151 ft | 266 kts | 229° |
| 2026-05-04 19:27 | 29.88799 | 31.34268 | 6626 ft | 269 kts | 228° |
| 2026-05-04 19:27 | 29.87724 | 31.32529 | 6133 ft | 265 kts | 244° |
| 2026-05-04 19:28 | 29.86996 | 31.30598 | 5729 ft | 260 kts | 255° |
| 2026-05-04 19:28 | 29.86768 | 31.28551 | 5274 ft | 257 kts | 275° |
| 2026-05-04 19:28 | 29.87253 | 31.26601 | 4854 ft | 254 kts | 299° |
| 2026-05-04 19:28 | 29.88418 | 31.25108 | 4377 ft | 252 kts | 324° |
| 2026-05-04 19:29 | 29.90032 | 31.24365 | 3957 ft | 252 kts | 350° |
| 2026-05-04 19:29 | 29.91786 | 31.24391 | 3552 ft | 251 kts | 2° |
| 2026-05-04 19:29 | 29.93509 | 31.24478 | 3282 ft | 244 kts | 358° |
| 2026-05-04 19:29 | 29.95161 | 31.24457 | 3139 ft | 231 kts | 356° |
| 2026-05-04 19:30 | 29.96714 | 31.24389 | 3005 ft | 220 kts | 358° |
| 2026-05-04 19:30 | 29.98083 | 31.24861 | 2830 ft | 214 kts | 26° |
| 2026-05-04 19:30 | 29.99262 | 31.25838 | 2755 ft | 204 kts | 38° |
| 2026-05-04 19:30 | 30.00201 | 31.27000 | 2639 ft | 192 kts | 44° |
| 2026-05-04 19:31 | 30.01065 | 31.28093 | 2526 ft | 176 kts | 41° |
| 2026-05-04 19:31 | 30.01844 | 31.29088 | 2364 ft | 159 kts | 43° |
| 2026-05-04 19:31 | 30.02540 | 31.30022 | 2132 ft | 148 kts | 42° |
| 2026-05-04 19:31 | 30.03193 | 31.30872 | 1978 ft | 135 kts | 40° |
| 2026-05-04 19:32 | 30.03814 | 31.31688 | 1843 ft | 136 kts | 40° |
| 2026-05-04 19:32 | 30.04449 | 31.32489 | 1798 ft | 136 kts | 38° |
| 2026-05-04 19:32 | 30.05068 | 31.33297 | 1673 ft | 136 kts | 43° |
| 2026-05-04 19:32 | 30.05667 | 31.34138 | 1564 ft | 136 kts | 42° |
| 2026-05-04 19:33 | 30.06299 | 31.34962 | 1357 ft | 136 kts | 39° |
| 2026-05-04 19:33 | 30.06929 | 31.35758 | 1204 ft | 133 kts | 39° |
| 2026-05-04 19:33 | 30.07533 | 31.36571 | 1073 ft | 135 kts | 41° |
| 2026-05-04 19:33 | 30.08137 | 31.37407 | 887 ft | 136 kts | 44° |
| 2026-05-04 19:34 | 30.08757 | 31.38219 | 726 ft | 138 kts | 41° |
| 2026-05-04 19:34 | 30.09391 | 31.39049 | 562 ft | 136 kts | 44° |
| 2026-05-04 19:34 | 30.10008 | 31.39887 | 410 ft | 136 kts | 43° |
| 2026-05-04 19:34 | 30.10577 | 31.40644 | 387 ft | 125 kts | 42° |
| 2026-05-04 19:35 | 30.11104 | 31.41337 | 381 ft | 98 kts | 49° |
| 2026-05-04 19:35 | 30.11372 | 31.41690 | 381 ft | 17 kts | 49° |
| 2026-05-04 19:35 | 30.11440 | 31.41782 | 380 ft | 17 kts | 49° |
| 2026-05-04 19:35 | 30.11524 | 31.41896 | 378 ft | 21 kts | 49° |
| 2026-05-04 19:36 | 30.11626 | 31.42031 | 376 ft | 23 kts | 49° |
| 2026-05-04 19:36 | 30.11754 | 31.42148 | 377 ft | 24 kts | 32° |
| 2026-05-04 19:36 | 30.11855 | 31.42197 | 379 ft | 24 kts | 18° |
| 2026-05-04 19:36 | 30.11975 | 31.42225 | 381 ft | 15 kts | 343° |
| 2026-05-04 19:37 | 30.11995 | 31.42130 | 381 ft | 15 kts | 237° |
| 2026-05-04 19:37 | 30.11898 | 31.41995 | 381 ft | 19 kts | 228° |
| 2026-05-04 19:37 | 30.11808 | 31.41873 | 380 ft | 16 kts | 229° |
| 2026-05-04 19:37 | 30.11771 | 31.41824 | 380 ft | 10 kts | 229° |
| 2026-05-04 19:38 | 30.11737 | 31.41780 | 380 ft | 12 kts | 229° |
| 2026-05-04 19:38 | 30.11676 | 31.41699 | 380 ft | 16 kts | 229° |
| 2026-05-04 19:38 | 30.11594 | 31.41589 | 380 ft | 20 kts | 229° |
| 2026-05-04 19:38 | 30.11582 | 31.41573 | 380 ft | 0 kts | 229° |
| 2026-05-04 19:39 | 30.11581 | 31.41571 | 380 ft | 2 kts | 229° |
| 2026-05-04 19:39 | 30.11555 | 31.41537 | 380 ft | 8 kts | 229° |
| 2026-05-04 19:39 | 30.11507 | 31.41473 | 380 ft | 13 kts | 229° |
| 2026-05-04 19:39 | 30.11441 | 31.41386 | 381 ft | 16 kts | 228° |
| 2026-05-04 19:40 | 30.11358 | 31.41279 | 381 ft | 20 kts | 229° |
| 2026-05-04 19:40 | 30.11261 | 31.41151 | 381 ft | 23 kts | 229° |
| 2026-05-04 19:40 | 30.11167 | 31.41024 | 381 ft | 14 kts | 229° |
| 2026-05-04 19:40 | 30.11095 | 31.40928 | 381 ft | 18 kts | 230° |
| 2026-05-04 19:41 | 30.11081 | 31.40797 | 380 ft | 17 kts | 276° |
| 2026-05-04 19:41 | 30.11033 | 31.40682 | 380 ft | 16 kts | 226° |
| 2026-05-04 19:41 | 30.11032 | 31.40624 | 380 ft | 6 kts | 312° |
| 2026-05-04 19:41 | 30.11077 | 31.40579 | 380 ft | 10 kts | 319° |
| 2026-05-04 19:42 | 30.11139 | 31.40516 | 380 ft | 13 kts | 319° |
| 2026-05-04 19:42 | 30.11203 | 31.40452 | 380 ft | 4 kts | 320° |
| 2026-05-04 19:42 | 30.11226 | 31.40419 | 380 ft | 4 kts | 278° |
| 2026-05-04 19:42 | 30.11210 | 31.40382 | 380 ft | 7 kts | 231° |
| 2026-05-04 19:43 | 30.11199 | 31.40367 | 380 ft | 4 kts | 229° |
| 2026-05-04 19:43 | 30.11194 | 31.40361 | 380 ft | 1 kts | 228° |
| 2026-05-04 19:43 | 30.11193 | 31.40361 | 380 ft | 0 kts | 228° |